Time;durP1;ratioP1;P1;durP2;ratioP2;P2;SDS_P1;SDS_P2;PMS_P1;PMS_P2;Temp;Humidity;BMP_temperature;BMP_pressure;BME280_temperature;BME280_humidity;BME280_pressure;Samples;Min_cycle;Max_cycle;Signal;HPM_P1;HPM_P2
2022/12/12 00:01:56;;;;;;;47.08;23.02;;;-3275.50;90.70;;;;;;5032563;28;19988;-45
2022/12/12 00:04:23;;;;;;;43.63;25.13;;;-3275.60;90.80;;;;;;5050463;28;20033;-42
2022/12/12 00:06:52;;;;;;;45.05;23.70;;;-3275.60;90.80;;;;;;5054204;28;20394;-46
2022/12/12 00:09:19;;;;;;;51.65;26.33;;;-3275.60;90.70;;;;;;5037744;28;20386;-47
2022/12/12 00:11:49;;;;;;;46.85;24.02;;;-3275.60;90.70;;;;;;5037362;28;20040;-44
2022/12/12 00:14:15;;;;;;;50.63;25.65;;;-3275.60;90.70;;;;;;5053916;28;20452;-47
2022/12/12 00:16:42;;;;;;;53.95;25.08;;;-3275.60;90.70;;;;;;5028564;28;20144;-46
2022/12/12 00:19:09;;;;;;;44.78;25.98;;;-3275.60;90.60;;;;;;5033701;28;20095;-43
2022/12/12 00:21:36;;;;;;;50.25;26.15;;;-3275.70;90.70;;;;;;5043382;28;20037;-47
2022/12/12 00:24:02;;;;;;;51.30;25.20;;;-3275.70;90.50;;;;;;5052649;28;20025;-47
2022/12/12 00:26:31;;;;;;;49.42;25.95;;;-3275.60;90.50;;;;;;5048759;28;20032;-46
2022/12/12 00:28:59;;;;;;;46.38;24.58;;;-3275.60;90.50;;;;;;5033849;28;20037;-44
2022/12/12 00:31:28;;;;;;;50.28;24.90;;;-3275.60;90.60;;;;;;5036918;28;20057;-43
2022/12/12 00:33:55;;;;;;;53.45;24.83;;;-3275.60;90.60;;;;;;5032615;28;20068;-45
2022/12/12 00:36:25;;;;;;;52.67;26.33;;;-3275.60;90.60;;;;;;5033624;28;20045;-47
2022/12/12 00:38:53;;;;;;;54.30;26.60;;;-3275.60;90.70;;;;;;5037666;28;20028;-42
2022/12/12 00:41:21;;;;;;;52.22;25.38;;;-3275.60;90.50;;;;;;5053319;28;20047;-44
2022/12/12 00:43:49;;;;;;;53.25;26.80;;;-3275.60;90.60;;;;;;5044885;28;20029;-45
2022/12/12 00:46:19;;;;;;;49.88;25.00;;;-3275.60;90.60;;;;;;5033071;28;20029;-44
2022/12/12 00:48:47;;;;;;;46.75;23.85;;;-3275.60;90.50;;;;;;5031547;28;20036;-44
2022/12/12 00:51:18;;;;;;;48.25;24.35;;;-3275.60;90.50;;;;;;5041014;28;20021;-46
2022/12/12 00:53:44;;;;;;;67.65;26.85;;;-3275.60;90.60;;;;;;5037682;28;20017;-42
2022/12/12 00:56:14;;;;;;;46.67;23.38;;;-3275.60;90.50;;;;;;5016848;28;20455;-46
2022/12/12 00:58:41;;;;;;;46.75;25.08;;;-3275.60;90.50;;;;;;5024992;28;20057;-43
2022/12/12 01:01:16;;;;;;;56.35;27.10;;;-3275.70;90.50;;;;;;5031681;28;20474;-44
2022/12/12 01:03:45;;;;;;;40.80;22.73;;;-3275.60;90.40;;;;;;5028447;28;20050;-47
2022/12/12 01:06:12;;;;;;;48.63;24.10;;;-3275.70;90.40;;;;;;5031711;28;20115;-44
2022/12/12 01:08:40;;;;;;;54.28;26.10;;;-3275.60;90.20;;;;;;5032936;28;20025;-43
2022/12/12 01:11:07;;;;;;;55.08;26.13;;;-3275.70;90.40;;;;;;5046361;28;20549;-45
2022/12/12 01:13:34;;;;;;;47.35;22.90;;;-3275.70;90.30;;;;;;5036180;28;20045;-43
2022/12/12 01:16:02;;;;;;;51.78;26.52;;;-3275.60;90.30;;;;;;5031243;28;20083;-45
2022/12/12 01:18:29;;;;;;;45.67;23.13;;;-3275.70;90.30;;;;;;5030995;28;20039;-45
2022/12/12 01:20:56;;;;;;;49.85;24.33;;;-3275.70;90.20;;;;;;5052736;28;20462;-45
2022/12/12 01:23:27;;;;;;;54.67;23.85;;;-3275.60;90.20;;;;;;5048173;28;20428;-43
2022/12/12 01:26:10;;;;;;;49.80;24.13;;;-3275.70;90.20;;;;;;5028029;28;20099;-47
2022/12/12 01:28:39;;;;;;;50.35;23.42;;;-3275.60;90.10;;;;;;5018173;28;20028;-43
2022/12/12 01:31:06;;;;;;;57.00;24.38;;;-3275.60;90.20;;;;;;5031898;28;20455;-44
2022/12/12 01:33:33;;;;;;;42.17;24.48;;;-3275.60;90.10;;;;;;5030229;28;20029;-46
2022/12/12 01:36:00;;;;;;;42.17;22.48;;;-3275.60;90.00;;;;;;5032580;28;20040;-44
2022/12/12 01:38:26;;;;;;;49.80;25.83;;;-3275.60;90.10;;;;;;5032631;28;20450;-45
2022/12/12 01:40:53;;;;;;;50.38;25.95;;;-3275.60;90.10;;;;;;5026540;28;20033;-44
2022/12/12 01:43:22;;;;;;;43.17;23.63;;;-3275.60;90.10;;;;;;5038414;28;20461;-44
2022/12/12 01:46:17;;;;;;;53.45;26.77;;;-3275.60;90.10;;;;;;5051552;28;20021;-45
2022/12/12 01:48:52;;;;;;;50.92;23.30;;;-3275.60;90.00;;;;;;5034676;28;20023;-45
2022/12/12 01:51:22;;;;;;;50.67;22.85;;;-3275.60;90.10;;;;;;5036162;28;20029;-43
2022/12/12 01:53:53;;;;;;;56.33;25.65;;;-3275.60;90.10;;;;;;5046912;28;20029;-44
2022/12/12 01:56:20;;;;;;;43.78;22.95;;;-3275.50;90.00;;;;;;5041296;28;20044;-45
2022/12/12 01:58:51;;;;;;;53.22;23.70;;;-3275.50;90.10;;;;;;5036430;28;20099;-47
2022/12/12 02:01:19;;;;;;;50.50;24.65;;;-3275.50;90.00;;;;;;5042774;28;20091;-43
2022/12/12 02:03:47;;;;;;;51.50;25.65;;;-3275.40;90.00;;;;;;5044915;28;20331;-46
2022/12/12 02:06:23;;;;;;;46.03;23.05;;;-3275.40;89.80;;;;;;5035836;28;20021;-45
2022/12/12 02:08:52;;;;;;;54.35;27.65;;;-3275.40;89.90;;;;;;5045706;28;20095;-48
2022/12/12 02:11:19;;;;;;;49.70;25.80;;;-3275.40;89.90;;;;;;5056225;28;20029;-44
2022/12/12 02:13:47;;;;;;;46.58;22.77;;;-3275.30;89.90;;;;;;5047220;28;20029;-43
2022/12/12 02:16:19;;;;;;;52.05;23.27;;;-3275.30;90.00;;;;;;5050580;28;20036;-49
2022/12/12 02:19:25;;;;;;;50.47;26.58;;;-3275.30;90.00;;;;;;5046457;28;20421;-45
2022/12/12 02:22:21;;;;;;;53.80;25.83;;;-3275.30;89.90;;;;;;5035426;28;20045;-43
2022/12/12 02:24:47;;;;;;;53.42;23.05;;;-3275.30;89.90;;;;;;5041503;28;20044;-46
2022/12/12 02:27:49;;;;;;;51.80;25.40;;;-3275.30;89.90;;;;;;5055969;28;20029;-45
2022/12/12 02:30:52;;;;;;;51.78;25.63;;;-3275.30;89.90;;;;;;5049275;28;20037;-42
2022/12/12 02:33:52;;;;;;;46.45;23.42;;;-3275.20;89.90;;;;;;5034252;28;20087;-46
2022/12/12 02:36:46;;;;;;;53.08;23.85;;;-3275.20;89.80;;;;;;5016054;28;20022;-43
2022/12/12 02:39:38;;;;;;;51.75;22.80;;;-3275.20;89.70;;;;;;5035662;28;20104;-46
2022/12/12 02:42:13;;;;;;;54.42;24.58;;;-3275.20;89.70;;;;;;5027196;28;20112;-45
2022/12/12 02:45:01;;;;;;;50.97;24.40;;;-3275.10;89.80;;;;;;5034409;28;20033;-46
2022/12/12 02:47:36;;;;;;;54.83;23.25;;;-3275.10;89.80;;;;;;5031936;28;20029;-45
2022/12/12 02:50:09;;;;;;;46.33;23.02;;;-3275.10;89.80;;;;;;5033242;28;20489;-44
2022/12/12 02:52:36;;;;;;;50.05;25.23;;;-3275.10;89.80;;;;;;5045960;28;20036;-46
2022/12/12 02:55:03;;;;;;;53.08;24.35;;;-3275.10;89.80;;;;;;5018523;28;20455;-47
2022/12/12 02:57:28;;;;;;;48.00;23.42;;;-3275.00;89.80;;;;;;5016305;28;20108;-48
2022/12/12 03:00:12;;;;;;;42.65;22.23;;;-3275.00;89.80;;;;;;5025940;28;20464;-45
2022/12/12 03:09:45;;;;;;;44.15;20.92;;;-3274.90;89.70;;;;;;5036921;28;20095;-47
2022/12/12 03:12:19;;;;;;;50.08;24.23;;;-3274.80;89.70;;;;;;5033970;28;20033;-42
2022/12/12 03:15:00;;;;;;;46.22;24.10;;;-3274.80;89.60;;;;;;5048835;28;20374;-49
2022/12/12 03:17:38;;;;;;;47.38;23.45;;;-3274.80;89.70;;;;;;5041592;28;20462;-49
2022/12/12 03:20:21;;;;;;;52.15;23.20;;;-3274.80;89.60;;;;;;5013675;28;20064;-46
2022/12/12 03:23:02;;;;;;;44.58;23.00;;;-3274.80;89.70;;;;;;5017045;28;20040;-45
2022/12/12 03:25:46;;;;;;;53.75;25.17;;;-3274.80;89.80;;;;;;5023636;28;20439;-48
2022/12/12 03:28:49;;;;;;;47.45;24.10;;;-3274.80;89.80;;;;;;5023962;28;20029;-49
2022/12/12 03:31:20;;;;;;;48.10;22.88;;;-3274.80;89.70;;;;;;5023981;28;20057;-43
2022/12/12 03:33:59;;;;;;;49.42;23.65;;;-3274.70;89.80;;;;;;5024684;28;20025;-45
2022/12/12 03:37:05;;;;;;;48.22;22.95;;;-3274.80;89.90;;;;;;5024627;28;20029;-43
2022/12/12 03:39:55;;;;;;;47.58;24.73;;;-3274.70;90.00;;;;;;5028539;28;20103;-48
2022/12/12 03:42:28;;;;;;;42.45;23.77;;;-3274.70;89.90;;;;;;5031736;28;20025;-46
2022/12/12 03:45:07;;;;;;;52.13;23.65;;;-3274.80;89.90;;;;;;5033051;28;20350;-46
2022/12/12 03:47:49;;;;;;;50.58;26.23;;;-3274.70;90.10;;;;;;5031862;28;20033;-45
2022/12/12 03:50:33;;;;;;;52.55;23.98;;;-3274.80;90.00;;;;;;5033315;28;20053;-46
2022/12/12 03:53:23;;;;;;;55.05;23.33;;;-3274.80;90.00;;;;;;5030334;28;20049;-42
2022/12/12 03:56:11;;;;;;;48.55;25.75;;;-3274.70;89.90;;;;;;5026932;28;20025;-44
2022/12/12 03:58:42;;;;;;;51.78;24.85;;;-3274.70;89.90;;;;;;5014145;28;20061;-48
2022/12/12 04:01:11;;;;;;;50.28;24.52;;;-3274.80;90.00;;;;;;5025030;28;20514;-45
2022/12/12 04:03:59;;;;;;;51.90;24.20;;;-3274.80;90.00;;;;;;5023396;28;20108;-45
2022/12/12 04:06:41;;;;;;;50.75;23.30;;;-3274.80;89.80;;;;;;5032820;28;20025;-44
2022/12/12 04:15:29;;;;;;;50.33;23.48;;;-3274.70;89.60;;;;;;5014269;28;20359;-45
2022/12/12 04:18:01;;;;;;;46.38;22.77;;;-3274.70;89.80;;;;;;5015745;28;20095;-45
2022/12/12 04:23:50;;;;;;;51.72;26.52;;;-3274.70;89.80;;;;;;5053473;28;20508;-46
2022/12/12 04:26:53;;;;;;;48.40;24.08;;;-3274.70;89.80;;;;;;5028874;28;20041;-44
2022/12/12 04:29:27;;;;;;;46.55;23.83;;;-3274.70;89.70;;;;;;5023319;28;20454;-45
2022/12/12 04:32:05;;;;;;;56.50;25.55;;;-3274.60;89.60;;;;;;5022112;28;20465;-49
2022/12/12 04:34:37;;;;;;;53.63;26.02;;;-3274.60;89.60;;;;;;5028083;28;20037;-43
2022/12/12 04:37:06;;;;;;;61.72;26.30;;;-3274.60;89.60;;;;;;5020367;28;20029;-46
2022/12/12 04:39:38;;;;;;;52.08;24.50;;;-3274.60;89.70;;;;;;5032776;28;20032;-48
2022/12/12 04:42:09;;;;;;;44.85;23.10;;;-3274.60;89.50;;;;;;5050429;28;20055;-43
2022/12/12 04:44:42;;;;;;;47.40;23.73;;;-3274.60;89.70;;;;;;5025988;28;20036;-44
2022/12/12 04:47:11;;;;;;;54.50;26.13;;;-3274.60;89.80;;;;;;5008368;28;20349;-45
2022/12/12 04:49:42;;;;;;;49.15;22.75;;;-3274.50;89.70;;;;;;5022791;28;20034;-46
2022/12/12 04:52:14;;;;;;;55.90;26.58;;;-3274.60;89.80;;;;;;5022345;28;20128;-45
2022/12/12 04:54:58;;;;;;;46.40;24.02;;;-3274.60;89.80;;;;;;5013662;28;20018;-43
2022/12/12 04:57:47;;;;;;;44.80;22.58;;;-3274.50;89.50;;;;;;5013271;28;20494;-46
2022/12/12 05:00:15;;;;;;;47.45;23.70;;;-3274.50;89.50;;;;;;5014685;28;20065;-45
2022/12/12 05:03:07;;;;;;;53.88;24.90;;;-3274.50;89.60;;;;;;5032253;28;20058;-46
2022/12/12 05:05:58;;;;;;;56.28;24.98;;;-3274.40;89.50;;;;;;5029723;28;20032;-45
2022/12/12 05:08:33;;;;;;;45.08;22.15;;;-3274.40;89.50;;;;;;5032515;28;20037;-45
2022/12/12 05:11:04;;;;;;;53.58;25.55;;;-3274.40;89.50;;;;;;5031967;28;20040;-46
2022/12/12 05:13:34;;;;;;;45.33;21.77;;;-3274.30;89.60;;;;;;5032024;28;20026;-43
2022/12/12 05:16:03;;;;;;;50.05;23.80;;;-3274.30;89.60;;;;;;5022633;28;20036;-45
2022/12/12 05:18:30;;;;;;;45.33;22.87;;;-3274.30;89.50;;;;;;5031187;28;20042;-47
2022/12/12 05:20:57;;;;;;;45.00;22.95;;;-3274.30;89.50;;;;;;5031025;28;20291;-47
2022/12/12 05:23:23;;;;;;;46.13;23.00;;;-3274.30;89.40;;;;;;5031507;28;20811;-47
2022/12/12 05:25:49;;;;;;;43.95;21.98;;;-3274.20;89.40;;;;;;5018272;28;20462;-45
2022/12/12 05:28:16;;;;;;;51.35;25.40;;;-3274.20;89.40;;;;;;5017003;28;21016;-44
2022/12/12 05:30:43;;;;;;;52.35;24.70;;;-3274.20;89.30;;;;;;5032546;28;20068;-48
2022/12/12 05:33:10;;;;;;;47.75;24.02;;;-3274.20;89.40;;;;;;5040851;28;20033;-44
2022/12/12 05:35:37;;;;;;;49.65;25.38;;;-3274.10;89.30;;;;;;5024829;28;20447;-45
2022/12/12 05:38:03;;;;;;;40.78;22.55;;;-3274.10;89.30;;;;;;5011590;28;20030;-44
2022/12/12 05:40:29;;;;;;;51.30;26.83;;;-3274.10;89.40;;;;;;5031347;28;20037;-49
2022/12/12 05:42:55;;;;;;;59.28;26.52;;;-3274.10;89.30;;;;;;5046572;28;20021;-44
2022/12/12 05:45:22;;;;;;;50.78;25.35;;;-3274.10;89.40;;;;;;5052520;28;20077;-44
2022/12/12 05:47:50;;;;;;;50.13;25.70;;;-3274.10;89.50;;;;;;5052405;28;20126;-47
2022/12/12 05:50:17;;;;;;;51.70;27.02;;;-3274.10;89.50;;;;;;5040294;28;20183;-44
2022/12/12 05:52:43;;;;;;;43.17;23.75;;;-3274.10;89.50;;;;;;5032537;28;20025;-46
2022/12/12 05:55:10;;;;;;;53.83;27.40;;;-3274.10;89.50;;;;;;5032788;28;20116;-47
2022/12/12 05:57:38;;;;;;;50.63;26.05;;;-3274.10;89.60;;;;;;5030979;28;20087;-45
2022/12/12 06:00:05;;;;;;;47.38;25.63;;;-3274.10;89.70;;;;;;5031130;28;20072;-46
2022/12/12 06:02:32;;;;;;;51.47;25.45;;;-3274.20;89.70;;;;;;5028754;28;20391;-43
2022/12/12 06:04:59;;;;;;;56.58;25.27;;;-3274.20;89.60;;;;;;5027504;28;20053;-44
2022/12/12 06:07:26;;;;;;;50.13;25.67;;;-3274.20;89.60;;;;;;5020492;28;20385;-46
2022/12/12 06:09:54;;;;;;;53.15;27.02;;;-3274.20;89.70;;;;;;5030518;28;20033;-48
2022/12/12 06:12:21;;;;;;;54.50;26.15;;;-3274.20;89.60;;;;;;5012052;28;20034;-45
2022/12/12 06:14:49;;;;;;;53.45;27.60;;;-3274.20;89.70;;;;;;5019645;28;20022;-45
2022/12/12 06:17:15;;;;;;;47.92;24.55;;;-3274.20;89.70;;;;;;5023991;28;20538;-45
2022/12/12 06:19:42;;;;;;;44.33;24.15;;;-3274.20;89.70;;;;;;5021466;28;20056;-46
2022/12/12 06:22:09;;;;;;;47.25;23.65;;;-3274.20;89.80;;;;;;5020700;28;20026;-43
2022/12/12 06:24:34;;;;;;;53.42;25.52;;;-3274.20;90.00;;;;;;5021529;28;20447;-46
2022/12/12 06:27:01;;;;;;;46.22;24.60;;;-3274.20;90.10;;;;;;5025308;28;20057;-43
2022/12/12 06:29:28;;;;;;;51.88;23.30;;;-3274.20;90.00;;;;;;5026766;28;20025;-45
2022/12/12 06:31:57;;;;;;;55.67;25.52;;;-3274.20;90.00;;;;;;5015868;28;20049;-44
2022/12/12 06:34:23;;;;;;;50.90;26.55;;;-3274.30;90.10;;;;;;5021545;28;20105;-45
2022/12/12 06:36:52;;;;;;;55.50;26.30;;;-3274.30;90.10;;;;;;5018323;28;20468;-44
2022/12/12 06:39:19;;;;;;;48.28;24.20;;;-3274.30;90.00;;;;;;5019219;28;20030;-45
2022/12/12 06:41:46;;;;;;;53.88;24.35;;;-3274.30;90.00;;;;;;5025491;28;20116;-44
2022/12/12 06:44:15;;;;;;;50.95;26.23;;;-3274.30;89.90;;;;;;5021964;28;20033;-46
2022/12/12 06:46:41;;;;;;;47.03;24.42;;;-3274.30;89.90;;;;;;5029632;28;20033;-45
2022/12/12 06:49:08;;;;;;;53.33;25.90;;;-3274.30;89.90;;;;;;5030318;28;20041;-44
2022/12/12 06:51:42;;;;;;;44.40;23.40;;;-3274.20;90.00;;;;;;5025959;28;20070;-44
2022/12/12 06:54:15;;;;;;;49.47;23.77;;;-3274.20;90.00;;;;;;5023564;28;20060;-45
2022/12/12 06:56:45;;;;;;;49.97;24.65;;;-3274.20;90.10;;;;;;5021208;28;20051;-44
2022/12/12 06:59:12;;;;;;;52.63;25.80;;;-3274.20;90.20;;;;;;5021294;28;20049;-46
2022/12/12 07:01:41;;;;;;;53.95;26.27;;;-3274.30;90.20;;;;;;5020549;28;20029;-45
2022/12/12 07:04:12;;;;;;;53.47;29.08;;;-3274.20;90.10;;;;;;5020154;28;20104;-50
2022/12/12 07:06:39;;;;;;;54.20;26.15;;;-3274.30;90.40;;;;;;5021533;28;20034;-44
2022/12/12 07:09:07;;;;;;;46.53;23.80;;;-3274.30;90.40;;;;;;5022167;28;20101;-46
2022/12/12 07:11:33;;;;;;;52.83;26.30;;;-3274.30;90.30;;;;;;5025196;28;20460;-45
2022/12/12 07:14:04;;;;;;;44.45;24.83;;;-3274.30;90.30;;;;;;5020671;28;20036;-47
2022/12/12 07:16:31;;;;;;;47.70;23.33;;;-3274.30;90.40;;;;;;5025913;28;20068;-44
2022/12/12 07:18:59;;;;;;;47.33;24.17;;;-3274.30;90.50;;;;;;5028658;28;20292;-46
2022/12/12 07:21:25;;;;;;;50.00;24.40;;;-3274.30;90.60;;;;;;5024964;28;20028;-45
2022/12/12 07:23:52;;;;;;;50.17;25.05;;;-3274.40;90.50;;;;;;5030291;28;20342;-49
2022/12/12 07:26:21;;;;;;;47.83;24.17;;;-3274.30;90.40;;;;;;5034180;28;20053;-46
2022/12/12 07:28:50;;;;;;;50.83;23.97;;;-3274.30;90.40;;;;;;5013939;28;20021;-45
2022/12/12 07:31:19;;;;;;;52.85;24.00;;;-3274.30;90.30;;;;;;5026536;28;20029;-43
2022/12/12 07:33:47;;;;;;;;;;;-3274.30;90.30;;;;;;5023342;28;20029;-43
2022/12/12 07:36:15;;;;;;;48.88;24.73;;;-3274.30;90.30;;;;;;5028298;28;19919;-44
2022/12/12 07:38:42;;;;;;;48.47;25.50;;;-3274.30;90.30;;;;;;5023111;28;20563;-46
2022/12/12 07:41:13;;;;;;;48.47;25.42;;;-3274.30;90.20;;;;;;5028406;28;20721;-43
2022/12/12 07:43:41;;;;;;;52.90;25.20;;;-3274.20;90.20;;;;;;5019268;28;20017;-47
2022/12/12 07:46:08;;;;;;;45.90;23.55;;;-3274.30;90.20;;;;;;5019870;28;20037;-43
2022/12/12 07:48:38;;;;;;;48.83;25.20;;;-3274.20;90.10;;;;;;5021993;28;20116;-42
2022/12/12 07:51:07;;;;;;;52.78;26.90;;;-3274.20;90.20;;;;;;5032162;28;20622;-43
2022/12/12 07:53:33;;;;;;;54.38;25.55;;;-3274.20;90.10;;;;;;5022317;28;20037;-44
2022/12/12 07:56:02;;;;;;;46.47;22.15;;;-3274.20;90.10;;;;;;5023705;28;20069;-45
2022/12/12 07:58:29;;;;;;;49.17;26.38;;;-3274.20;90.00;;;;;;5020421;28;20107;-46
2022/12/12 08:00:56;;;;;;;43.65;23.27;;;-3274.10;89.90;;;;;;5026422;28;20037;-43
2022/12/12 08:03:23;;;;;;;46.58;24.00;;;-3274.10;89.90;;;;;;5029925;28;20742;-45
2022/12/12 08:05:49;;;;;;;52.17;24.33;;;-3274.10;89.90;;;;;;5022114;28;20225;-43
2022/12/12 08:08:17;;;;;;;44.40;23.67;;;-3274.10;90.00;;;;;;5027447;28;20504;-45
2022/12/12 08:10:44;;;;;;;49.85;24.33;;;-3274.20;90.10;;;;;;5031899;28;20390;-43
2022/12/12 08:13:11;;;;;;;52.65;24.20;;;-3274.30;90.00;;;;;;5034047;28;20037;-44
2022/12/12 08:15:36;;;;;;;49.28;26.25;;;-3274.30;90.00;;;;;;5035892;28;20029;-44
2022/12/12 08:18:03;;;;;;;49.25;25.02;;;-3274.30;90.00;;;;;;5019426;28;20119;-44
2022/12/12 08:20:32;;;;;;;49.20;25.33;;;-3274.40;90.00;;;;;;5019666;28;20039;-45
2022/12/12 08:23:01;;;;;;;52.67;26.45;;;-3274.40;90.00;;;;;;5028997;28;20033;-45
2022/12/12 08:25:28;;;;;;;53.17;26.23;;;-3274.50;90.10;;;;;;5032343;28;20030;-47
2022/12/12 08:27:55;;;;;;;47.67;26.02;;;-3274.50;90.10;;;;;;5031882;28;20111;-45
2022/12/12 08:30:24;;;;;;;56.10;27.70;;;-3274.60;90.00;;;;;;5019341;28;20030;-47
2022/12/12 08:32:51;;;;;;;54.42;25.50;;;-3274.60;90.00;;;;;;5032670;28;20069;-47
2022/12/12 08:35:18;;;;;;;49.00;24.70;;;-3274.70;90.10;;;;;;5024205;28;20036;-44
2022/12/12 08:37:46;;;;;;;47.95;25.08;;;-3274.70;90.10;;;;;;5028001;28;20029;-44
2022/12/12 08:40:13;;;;;;;51.25;26.58;;;-3274.80;90.10;;;;;;5017968;28;20100;-45
2022/12/12 08:42:40;;;;;;;49.60;25.00;;;-3274.80;90.10;;;;;;5020052;28;20530;-44
2022/12/12 08:45:07;;;;;;;48.10;23.60;;;-3274.80;90.00;;;;;;5021268;28;20038;-44
2022/12/12 08:47:34;;;;;;;46.47;24.13;;;-3274.90;90.00;;;;;;5023923;28;20116;-43
2022/12/12 08:50:01;;;;;;;50.65;27.48;;;-3274.90;89.90;;;;;;5030139;28;20044;-43
2022/12/12 08:52:28;;;;;;;47.67;24.98;;;-3274.90;90.00;;;;;;5026473;28;20371;-45
2022/12/12 08:54:54;;;;;;;48.90;27.77;;;-3275.00;90.00;;;;;;5024379;28;20025;-44
2022/12/12 08:57:22;;;;;;;47.80;25.45;;;-3275.10;89.90;;;;;;5028333;28;20033;-42
2022/12/12 08:59:49;;;;;;;53.73;28.37;;;-3275.10;90.00;;;;;;5037842;28;20120;-48
2022/12/12 09:02:16;;;;;;;47.42;26.35;;;-3275.20;90.00;;;;;;5032199;28;20068;-44
2022/12/12 09:04:41;;;;;;;47.17;26.20;;;-3275.30;89.90;;;;;;5034925;28;20035;-44
2022/12/12 09:07:11;;;;;;;55.17;28.35;;;-3275.30;89.80;;;;;;5032663;28;20033;-42
2022/12/12 09:09:37;;;;;;;48.10;25.92;;;-3275.40;89.60;;;;;;5027868;28;20462;-43
2022/12/12 09:12:05;;;;;;;51.35;26.85;;;-3275.40;89.50;;;;;;5047145;28;20112;-44
2022/12/12 09:14:32;;;;;;;45.17;24.20;;;-3275.50;89.50;;;;;;5031697;28;20025;-44
2022/12/12 09:16:58;;;;;;;53.55;26.17;;;-3275.50;89.40;;;;;;5014271;28;20029;-43
2022/12/12 09:19:24;;;;;;;46.05;24.33;;;-3275.50;89.20;;;;;;5023213;28;20040;-45
2022/12/12 09:21:51;;;;;;;49.35;27.02;;;-3275.50;89.20;;;;;;5029348;28;20548;-44
2022/12/12 09:24:16;;;;;;;46.25;23.98;;;-3275.60;89.30;;;;;;5026501;28;20025;-44
2022/12/12 09:26:43;;;;;;;50.55;25.65;;;-3275.60;89.30;;;;;;5030341;28;20304;-43
2022/12/12 09:29:11;;;;;;;45.38;22.92;;;-3275.60;89.20;;;;;;5032553;28;20086;-43
2022/12/12 09:31:39;;;;;;;50.95;26.90;;;-3275.60;89.00;;;;;;5041950;28;20033;-44
2022/12/12 09:34:06;;;;;;;51.75;26.40;;;-3275.60;89.00;;;;;;5033863;28;20060;-43
2022/12/12 09:36:32;;;;;;;52.30;27.33;;;-3275.60;89.00;;;;;;5026281;28;20026;-45
2022/12/12 09:38:59;;;;;;;54.45;27.70;;;-3275.70;89.10;;;;;;5031102;28;20109;-44
2022/12/12 09:41:26;;;;;;;48.92;26.10;;;-3275.70;89.10;;;;;;5034745;28;20029;-45
2022/12/12 09:44:17;;;;;;;49.40;25.38;;;-3275.80;89.30;;;;;;5028864;28;20067;-44
2022/12/12 09:47:06;;;;;;;48.38;25.08;;;-3275.80;89.10;;;;;;5028819;28;20125;-42
2022/12/12 09:49:52;;;;;;;56.53;28.17;;;-3275.90;89.20;;;;;;5030627;28;20109;-45
2022/12/12 09:52:32;;;;;;;46.75;26.27;;;-3276.00;88.70;;;;;;5027354;28;20030;-42
2022/12/12 09:55:07;;;;;;;51.00;26.52;;;-3276.00;88.60;;;;;;5019789;28;20033;-44
2022/12/12 09:57:47;;;;;;;51.03;25.38;;;-3276.10;88.60;;;;;;5013896;28;20030;-43
2022/12/12 10:00:14;;;;;;;56.97;27.70;;;-3276.10;88.50;;;;;;5030077;28;20048;-42
2022/12/12 10:03:04;;;;;;;52.70;28.98;;;-3276.20;88.40;;;;;;5030268;28;20064;-45
2022/12/12 10:05:55;;;;;;;42.20;24.88;;;-3276.20;88.20;;;;;;5032686;28;20080;-46
2022/12/12 10:08:51;;;;;;;49.13;26.67;;;-3276.20;88.30;;;;;;5025111;28;20124;-43
2022/12/12 10:11:53;;;;;;;48.13;27.13;;;-3276.30;88.20;;;;;;5031157;28;20030;-46
2022/12/12 10:14:59;;;;;;;48.20;28.65;;;-3276.30;88.10;;;;;;5028971;28;20032;-45
2022/12/12 10:17:38;;;;;;;46.55;24.63;;;-3276.30;88.30;;;;;;5029770;28;20038;-44
2022/12/12 10:20:15;;;;;;;48.03;26.08;;;-3276.30;88.10;;;;;;5020310;28;20124;-44
2022/12/12 10:23:15;;;;;;;44.67;23.85;;;-3276.30;88.00;;;;;;5030226;28;20032;-44
2022/12/12 10:25:58;;;;;;;46.20;24.35;;;-3276.30;88.10;;;;;;5014339;28;20117;-45
2022/12/12 10:28:29;;;;;;;46.42;23.83;;;-3276.30;88.00;;;;;;5030203;28;20038;-46
2022/12/12 10:31:35;;;;;;;48.15;26.40;;;-3276.30;88.00;;;;;;5031860;28;20037;-47
2022/12/12 10:34:42;;;;;;;47.58;25.90;;;-3276.30;87.90;;;;;;5030390;28;20086;-46
2022/12/12 10:37:41;;;;;;;44.55;25.92;;;-3276.30;88.30;;;;;;5018941;28;20553;-45
2022/12/12 10:40:40;;;;;;;43.97;25.00;;;-3276.40;88.30;;;;;;5033345;28;20033;-47
2022/12/12 10:43:23;;;;;;;47.05;26.35;;;-3276.40;88.20;;;;;;5025212;28;20029;-44
2022/12/12 10:46:26;;;;;;;48.10;27.52;;;-3276.40;88.30;;;;;;5032314;28;20091;-43
2022/12/12 10:48:54;;;;;;;52.15;25.55;;;-3276.40;88.20;;;;;;5032213;28;20026;-43
2022/12/12 10:51:24;;;;;;;48.28;26.80;;;-3276.40;88.30;;;;;;5031205;28;20107;-45
2022/12/12 10:53:50;;;;;;;51.95;29.05;;;-3276.40;88.40;;;;;;5022295;28;20041;-44
2022/12/12 10:56:27;;;;;;;49.63;27.42;;;-3276.40;88.50;;;;;;5020455;28;20033;-44
2022/12/12 10:58:57;;;;;;;45.88;25.80;;;-3276.40;88.40;;;;;;5020545;28;20103;-46
2022/12/12 11:01:36;;;;;;;50.85;27.23;;;-3276.40;88.50;;;;;;5031881;28;20033;-45
2022/12/12 11:04:03;;;;;;;52.58;26.95;;;-3276.50;88.80;;;;;;5020871;28;20097;-44
2022/12/12 11:06:42;;;;;;;48.97;25.42;;;-3276.50;88.80;;;;;;5022265;28;20037;-44
2022/12/12 11:09:21;;;;;;;47.22;26.85;;;-3276.50;88.60;;;;;;5024173;28;20025;-45
2022/12/12 11:12:12;;;;;;;46.95;25.15;;;-3276.60;88.70;;;;;;5037934;28;20041;-47
2022/12/12 11:14:46;;;;;;;48.85;27.48;;;-3276.60;88.60;;;;;;5023515;28;20485;-45
2022/12/12 11:17:28;;;;;;;48.78;27.08;;;-3276.70;88.60;;;;;;5026551;28;20040;-43
2022/12/12 11:19:58;;;;;;;46.95;26.08;;;-3276.70;88.40;;;;;;5027357;28;20037;-47
2022/12/12 11:22:26;;;;;;;40.72;23.45;;;-3276.70;88.50;;;;;;5032696;28;20481;-43
2022/12/12 11:24:56;;;;;;;47.10;25.05;;;0.00;88.60;;;;;;5033920;28;20108;-44
2022/12/12 11:27:27;;;;;;;47.25;26.65;;;0.00;88.60;;;;;;5027583;28;20026;-48
2022/12/12 11:29:57;;;;;;;49.30;25.70;;;0.00;88.50;;;;;;5031865;28;20044;-44
2022/12/12 11:32:44;;;;;;;44.42;26.75;;;0.00;88.30;;;;;;5033023;28;20037;-43
2022/12/12 11:35:22;;;;;;;43.50;24.50;;;0.00;88.30;;;;;;5032527;28;20029;-47
2022/12/12 11:37:54;;;;;;;45.42;25.08;;;0.00;88.20;;;;;;5032229;28;20017;-45
2022/12/12 11:40:28;;;;;;;44.55;24.73;;;0.00;88.30;;;;;;5034087;28;20038;-43
2022/12/12 11:43:22;;;;;;;46.05;25.08;;;0.00;88.00;;;;;;5033425;28;20021;-45
2022/12/12 11:46:14;;;;;;;45.50;25.15;;;0.00;88.10;;;;;;5034825;28;20021;-43
2022/12/12 11:48:46;;;;;;;46.28;25.35;;;0.00;88.20;;;;;;5037925;28;20037;-44
2022/12/12 11:51:36;;;;;;;46.58;22.48;;;0.00;88.20;;;;;;5031053;28;20104;-50
2022/12/12 11:54:11;;;;;;;50.15;28.80;;;0.00;88.30;;;;;;5025537;28;20391;-44
2022/12/12 11:56:48;;;;;;;45.17;26.38;;;0.00;88.40;;;;;;5029994;28;20037;-43
2022/12/12 11:59:35;;;;;;;44.53;24.90;;;0.10;88.40;;;;;;5033094;28;20377;-42
2022/12/12 12:02:39;;;;;;;48.78;25.38;;;0.10;88.50;;;;;;5032778;28;20458;-46
2022/12/12 12:05:36;;;;;;;43.88;24.58;;;0.20;88.30;;;;;;5028671;28;20343;-44
2022/12/12 12:08:38;;;;;;;49.40;27.10;;;0.10;88.40;;;;;;5020652;28;20033;-47
2022/12/12 12:11:22;;;;;;;52.28;27.25;;;0.10;88.40;;;;;;5037640;28;20033;-44
2022/12/12 12:14:18;;;;;;;48.58;25.45;;;0.20;88.40;;;;;;5036421;28;20417;-48
2022/12/12 12:17:00;;;;;;;43.08;24.50;;;0.10;88.60;;;;;;5028265;28;20021;-48
2022/12/12 12:20:04;;;;;;;49.72;26.25;;;0.20;88.70;;;;;;5033181;28;20029;-45
2022/12/12 12:23:07;;;;;;;49.35;27.42;;;0.20;88.50;;;;;;5028324;28;20037;-45
2022/12/12 12:25:55;;;;;;;45.63;24.25;;;0.20;88.60;;;;;;5034350;28;20060;-43
2022/12/12 12:28:32;;;;;;;54.85;28.73;;;0.20;88.60;;;;;;5029980;28;20033;-44
2022/12/12 12:31:19;;;;;;;49.38;27.30;;;0.20;88.50;;;;;;5025304;28;20099;-44
2022/12/12 12:34:16;;;;;;;48.55;26.33;;;0.20;88.60;;;;;;5023115;28;20029;-46
2022/12/12 12:37:09;;;;;;;52.63;29.52;;;0.20;88.70;;;;;;5015327;28;20470;-43
2022/12/12 12:40:03;;;;;;;53.47;29.70;;;0.20;88.80;;;;;;5022738;28;20371;-43
2022/12/12 12:42:46;;;;;;;53.25;29.75;;;0.20;88.60;;;;;;5030784;28;20025;-44
2022/12/12 12:45:48;;;;;;;52.97;30.10;;;0.20;88.60;;;;;;5033021;28;20631;-44
2022/12/12 12:48:35;;;;;;;49.83;27.00;;;0.30;88.70;;;;;;5032714;28;20443;-42
2022/12/12 12:51:12;;;;;;;48.67;27.08;;;0.30;88.60;;;;;;5032922;28;20021;-43
2022/12/12 12:54:19;;;;;;;48.90;25.85;;;0.20;88.40;;;;;;5026544;28;20061;-43
2022/12/12 12:57:04;;;;;;;47.33;25.25;;;0.20;88.40;;;;;;5032494;28;20037;-45